sensor_id;sensor_type;location;lat;lon;timestamp;pressure;altitude;pressure_sealevel;temperature;humidity
79028;BME280;68427;48.476;19.102;2023-03-11T00:00:34;95284.13;;;5.97;88.99
79028;BME280;68427;48.476;19.102;2023-03-11T00:03:01;95287.28;;;5.99;88.89
79028;BME280;68427;48.476;19.102;2023-03-11T00:05:29;95295.63;;;6.01;89.44
79028;BME280;68427;48.476;19.102;2023-03-11T00:07:55;95292.63;;;6.04;89.21
79028;BME280;68427;48.476;19.102;2023-03-11T00:10:22;95286.72;;;6.09;88.48
79028;BME280;68427;48.476;19.102;2023-03-11T00:12:49;95286.88;;;6.14;88.19
79028;BME280;68427;48.476;19.102;2023-03-11T00:15:15;95300.44;;;6.16;88.40
79028;BME280;68427;48.476;19.102;2023-03-11T00:17:41;95292.22;;;6.31;86.13
79028;BME280;68427;48.476;19.102;2023-03-11T00:20:14;95295.75;;;6.37;85.15
79028;BME280;68427;48.476;19.102;2023-03-11T00:22:40;95300.53;;;6.40;86.04
79028;BME280;68427;48.476;19.102;2023-03-11T00:25:07;95298.25;;;6.43;85.48
79028;BME280;68427;48.476;19.102;2023-03-11T00:27:34;95296.56;;;6.49;85.32
79028;BME280;68427;48.476;19.102;2023-03-11T00:30:03;95299.75;;;6.51;86.08
79028;BME280;68427;48.476;19.102;2023-03-11T00:32:29;95296.22;;;6.45;87.07
79028;BME280;68427;48.476;19.102;2023-03-11T00:34:55;95300.75;;;6.50;84.20
79028;BME280;68427;48.476;19.102;2023-03-11T00:37:20;95313.41;;;6.46;85.59
79028;BME280;68427;48.476;19.102;2023-03-11T00:39:46;95309.16;;;6.52;83.86
79028;BME280;68427;48.476;19.102;2023-03-11T00:42:12;95308.44;;;6.57;82.20
79028;BME280;68427;48.476;19.102;2023-03-11T00:44:38;95304.28;;;6.56;83.45
79028;BME280;68427;48.476;19.102;2023-03-11T00:47:05;95308.31;;;6.52;83.76
79028;BME280;68427;48.476;19.102;2023-03-11T00:49:31;95303.94;;;6.52;82.87
79028;BME280;68427;48.476;19.102;2023-03-11T00:51:57;95310.94;;;6.52;82.16
79028;BME280;68427;48.476;19.102;2023-03-11T00:54:22;95317.50;;;6.54;81.85
79028;BME280;68427;48.476;19.102;2023-03-11T00:56:48;95303.69;;;6.54;82.22
79028;BME280;68427;48.476;19.102;2023-03-11T00:59:14;95307.31;;;6.53;82.49
79028;BME280;68427;48.476;19.102;2023-03-11T01:01:40;95317.94;;;6.51;81.22
79028;BME280;68427;48.476;19.102;2023-03-11T01:04:07;95295.44;;;6.45;83.21
79028;BME280;68427;48.476;19.102;2023-03-11T01:06:32;95296.22;;;6.45;80.12
79028;BME280;68427;48.476;19.102;2023-03-11T01:08:58;95298.25;;;6.43;81.32
79028;BME280;68427;48.476;19.102;2023-03-11T01:11:24;95306.72;;;6.39;81.15
79028;BME280;68427;48.476;19.102;2023-03-11T01:13:50;95303.00;;;6.35;82.14
79028;BME280;68427;48.476;19.102;2023-03-11T01:16:15;95314.97;;;6.36;81.25
79028;BME280;68427;48.476;19.102;2023-03-11T01:18:41;95315.41;;;6.33;82.34
79028;BME280;68427;48.476;19.102;2023-03-11T01:21:08;95289.66;;;6.43;79.97
79028;BME280;68427;48.476;19.102;2023-03-11T01:23:34;95270.81;;;6.47;79.18
79028;BME280;68427;48.476;19.102;2023-03-11T01:26:00;95264.91;;;6.40;79.37
79028;BME280;68427;48.476;19.102;2023-03-11T01:28:25;95271.22;;;6.33;80.66
79028;BME280;68427;48.476;19.102;2023-03-11T01:30:51;95264.09;;;6.28;80.34
79028;BME280;68427;48.476;19.102;2023-03-11T01:33:18;95268.50;;;6.27;79.92
79028;BME280;68427;48.476;19.102;2023-03-11T01:35:44;95268.94;;;6.24;79.29
79028;BME280;68427;48.476;19.102;2023-03-11T01:38:11;95263.19;;;6.22;80.42
79028;BME280;68427;48.476;19.102;2023-03-11T01:40:39;95253.00;;;6.21;79.44
79028;BME280;68427;48.476;19.102;2023-03-11T01:43:06;95226.09;;;6.15;79.62
79028;BME280;68427;48.476;19.102;2023-03-11T01:46:12;95224.03;;;6.05;81.40
79028;BME280;68427;48.476;19.102;2023-03-11T01:48:39;95219.75;;;5.99;79.75
79028;BME280;68427;48.476;19.102;2023-03-11T01:51:06;95209.56;;;5.98;79.66
79028;BME280;68427;48.476;19.102;2023-03-11T01:53:32;95210.34;;;5.98;79.17
79028;BME280;68427;48.476;19.102;2023-03-11T01:56:00;95205.59;;;5.95;79.22
79028;BME280;68427;48.476;19.102;2023-03-11T01:58:27;95203.41;;;5.92;78.32
79028;BME280;68427;48.476;19.102;2023-03-11T02:00:54;95204.66;;;5.90;79.59
79028;BME280;68427;48.476;19.102;2023-03-11T02:03:26;95221.91;;;5.84;78.98
79028;BME280;68427;48.476;19.102;2023-03-11T02:05:53;95235.44;;;5.74;80.85
79028;BME280;68427;48.476;19.102;2023-03-11T02:08:20;95248.13;;;5.64;81.79
79028;BME280;68427;48.476;19.102;2023-03-11T02:10:46;95239.41;;;5.58;82.24
79028;BME280;68427;48.476;19.102;2023-03-11T02:13:14;95236.22;;;5.45;81.82
79028;BME280;68427;48.476;19.102;2023-03-11T02:15:40;95231.28;;;5.36;81.48
79028;BME280;68427;48.476;19.102;2023-03-11T02:18:06;95246.16;;;5.48;77.84
79028;BME280;68427;48.476;19.102;2023-03-11T02:20:42;95248.22;;;5.57;77.43
79028;BME280;68427;48.476;19.102;2023-03-11T02:23:11;95250.81;;;5.57;77.41
79028;BME280;68427;48.476;19.102;2023-03-11T02:25:41;95252.19;;;5.60;77.12
79028;BME280;68427;48.476;19.102;2023-03-11T02:28:13;95256.06;;;5.69;75.07
79028;BME280;68427;48.476;19.102;2023-03-11T02:30:41;95277.06;;;5.68;77.55
79028;BME280;68427;48.476;19.102;2023-03-11T02:33:08;95286.44;;;5.69;75.55
79028;BME280;68427;48.476;19.102;2023-03-11T02:35:34;95291.63;;;5.69;76.86
79028;BME280;68427;48.476;19.102;2023-03-11T02:38:00;95261.94;;;5.65;76.64
79028;BME280;68427;48.476;19.102;2023-03-11T02:40:43;95261.63;;;5.73;75.47
79028;BME280;68427;48.476;19.102;2023-03-11T02:43:14;95258.22;;;5.72;74.83
79028;BME280;68427;48.476;19.102;2023-03-11T02:45:43;95272.59;;;5.75;74.53
79028;BME280;68427;48.476;19.102;2023-03-11T02:48:10;95277.78;;;5.75;74.37
79028;BME280;68427;48.476;19.102;2023-03-11T02:50:37;95271.13;;;5.79;72.18
79028;BME280;68427;48.476;19.102;2023-03-11T02:53:04;95268.09;;;5.82;70.57
79028;BME280;68427;48.476;19.102;2023-03-11T02:55:31;95260.66;;;5.85;69.68
79028;BME280;68427;48.476;19.102;2023-03-11T02:57:56;95267.66;;;5.85;72.00
79028;BME280;68427;48.476;19.102;2023-03-11T03:00:24;95270.03;;;5.87;68.91
79028;BME280;68427;48.476;19.102;2023-03-11T03:02:50;95274.66;;;5.84;68.72
79028;BME280;68427;48.476;19.102;2023-03-11T03:05:17;95272.41;;;5.88;69.64
79028;BME280;68427;48.476;19.102;2023-03-11T03:07:45;95262.53;;;5.78;71.42
79028;BME280;68427;48.476;19.102;2023-03-11T03:10:11;95258.56;;;5.76;70.07
79028;BME280;68427;48.476;19.102;2023-03-11T03:12:37;95269.22;;;5.74;69.05
79028;BME280;68427;48.476;19.102;2023-03-11T03:15:03;95262.28;;;5.68;71.57
79028;BME280;68427;48.476;19.102;2023-03-11T03:17:30;95280.31;;;5.63;72.28
79028;BME280;68427;48.476;19.102;2023-03-11T03:19:56;95286.88;;;5.66;71.23
79028;BME280;68427;48.476;19.102;2023-03-11T03:22:29;95289.53;;;5.59;68.46
79028;BME280;68427;48.476;19.102;2023-03-11T03:24:54;95313.28;;;5.62;68.47
79028;BME280;68427;48.476;19.102;2023-03-11T03:27:20;95299.41;;;5.69;67.63
79028;BME280;68427;48.476;19.102;2023-03-11T03:29:46;95278.44;;;5.70;68.41
79028;BME280;68427;48.476;19.102;2023-03-11T03:32:11;95277.06;;;5.68;66.84
79028;BME280;68427;48.476;19.102;2023-03-11T03:34:38;95265.78;;;5.74;65.76
79028;BME280;68427;48.476;19.102;2023-03-11T03:37:04;95275.59;;;5.72;68.27
79028;BME280;68427;48.476;19.102;2023-03-11T03:39:31;95288.25;;;5.68;68.92
79028;BME280;68427;48.476;19.102;2023-03-11T03:41:57;95294.81;;;5.71;65.75
79028;BME280;68427;48.476;19.102;2023-03-11T03:44:23;95317.72;;;5.74;66.40
79028;BME280;68427;48.476;19.102;2023-03-11T03:46:48;95318.44;;;5.81;64.03
79028;BME280;68427;48.476;19.102;2023-03-11T03:49:14;95320.41;;;5.85;62.87
79028;BME280;68427;48.476;19.102;2023-03-11T03:51:41;95318.91;;;5.78;64.03
79028;BME280;68427;48.476;19.102;2023-03-11T03:54:07;95306.13;;;5.76;64.68
79028;BME280;68427;48.476;19.102;2023-03-11T03:56:32;95275.59;;;5.72;64.34
79028;BME280;68427;48.476;19.102;2023-03-11T03:58:58;95276.50;;;5.66;63.75
79028;BME280;68427;48.476;19.102;2023-03-11T04:01:24;95276.16;;;5.62;62.74
79028;BME280;68427;48.476;19.102;2023-03-11T04:03:49;95278.75;;;5.62;59.94
79028;BME280;68427;48.476;19.102;2023-03-11T04:06:18;95269.34;;;5.61;61.90
79028;BME280;68427;48.476;19.102;2023-03-11T04:08:45;95280.81;;;5.53;61.70
79028;BME280;68427;48.476;19.102;2023-03-11T04:11:12;95292.44;;;5.51;59.33
79028;BME280;68427;48.476;19.102;2023-03-11T04:13:45;95280.91;;;5.47;59.93
79028;BME280;68427;48.476;19.102;2023-03-11T04:16:15;95269.72;;;5.46;58.34
79028;BME280;68427;48.476;19.102;2023-03-11T04:18:41;95261.06;;;5.34;59.27
79028;BME280;68427;48.476;19.102;2023-03-11T04:21:07;95268.66;;;5.35;59.10
79028;BME280;68427;48.476;19.102;2023-03-11T04:23:33;95263.53;;;5.29;60.08
79028;BME280;68427;48.476;19.102;2023-03-11T04:26:01;95262.81;;;5.22;58.62
79028;BME280;68427;48.476;19.102;2023-03-11T04:28:27;95260.88;;;5.17;60.37
79028;BME280;68427;48.476;19.102;2023-03-11T04:30:53;95275.88;;;5.15;61.06
79028;BME280;68427;48.476;19.102;2023-03-11T04:33:19;95272.53;;;5.08;60.94
79028;BME280;68427;48.476;19.102;2023-03-11T04:35:44;95272.53;;;5.08;61.61
79028;BME280;68427;48.476;19.102;2023-03-11T04:38:10;95266.03;;;4.98;61.24
79028;BME280;68427;48.476;19.102;2023-03-11T04:40:36;95249.53;;;4.93;61.37
79028;BME280;68427;48.476;19.102;2023-03-11T04:43:04;95249.81;;;4.85;63.05
79028;BME280;68427;48.476;19.102;2023-03-11T04:45:30;95261.56;;;4.87;62.58
79028;BME280;68427;48.476;19.102;2023-03-11T04:47:56;95276.91;;;4.89;63.70
79028;BME280;68427;48.476;19.102;2023-03-11T04:50:21;95274.75;;;4.86;64.44
79028;BME280;68427;48.476;19.102;2023-03-11T04:52:47;95285.59;;;4.76;64.46
79028;BME280;68427;48.476;19.102;2023-03-11T04:55:13;95285.44;;;4.71;63.91
79028;BME280;68427;48.476;19.102;2023-03-11T04:57:40;95289.88;;;4.64;62.60
79028;BME280;68427;48.476;19.102;2023-03-11T05:00:09;95302.91;;;4.57;64.49
79028;BME280;68427;48.476;19.102;2023-03-11T05:02:37;95327.53;;;4.41;63.55
79028;BME280;68427;48.476;19.102;2023-03-11T05:05:04;95332.19;;;4.32;62.07
79028;BME280;68427;48.476;19.102;2023-03-11T05:07:31;95330.25;;;4.21;62.25
79028;BME280;68427;48.476;19.102;2023-03-11T05:09:56;95343.28;;;4.08;60.77
79028;BME280;68427;48.476;19.102;2023-03-11T05:12:22;95343.94;;;3.97;61.57
79028;BME280;68427;48.476;19.102;2023-03-11T05:14:48;95341.78;;;3.87;62.00
79028;BME280;68427;48.476;19.102;2023-03-11T05:17:15;95360.72;;;3.81;62.14
79028;BME280;68427;48.476;19.102;2023-03-11T05:19:43;95351.22;;;3.68;60.68
79028;BME280;68427;48.476;19.102;2023-03-11T05:22:08;95342.72;;;3.54;60.47
79028;BME280;68427;48.476;19.102;2023-03-11T05:24:34;95340.31;;;3.46;59.92
79028;BME280;68427;48.476;19.102;2023-03-11T05:27:00;95338.56;;;3.40;60.28
79028;BME280;68427;48.476;19.102;2023-03-11T05:29:26;95356.50;;;3.35;59.47
79028;BME280;68427;48.476;19.102;2023-03-11T05:31:52;95363.06;;;3.31;59.16
79028;BME280;68427;48.476;19.102;2023-03-11T05:34:19;95362.69;;;3.34;61.30
79028;BME280;68427;48.476;19.102;2023-03-11T05:36:45;95365.03;;;3.35;60.71
79028;BME280;68427;48.476;19.102;2023-03-11T05:39:11;95362.69;;;3.34;60.63
79028;BME280;68427;48.476;19.102;2023-03-11T05:41:37;95356.91;;;3.32;60.64
79028;BME280;68427;48.476;19.102;2023-03-11T05:44:03;95357.09;;;3.30;61.25
79028;BME280;68427;48.476;19.102;2023-03-11T05:46:29;95370.63;;;3.32;64.03
79028;BME280;68427;48.476;19.102;2023-03-11T05:48:55;95352.72;;;3.31;60.85
79028;BME280;68427;48.476;19.102;2023-03-11T05:51:22;95356.13;;;3.18;62.39
79028;BME280;68427;48.476;19.102;2023-03-11T05:53:48;95378.00;;;3.15;63.86
79028;BME280;68427;48.476;19.102;2023-03-11T05:56:14;95370.66;;;3.19;62.13
79028;BME280;68427;48.476;19.102;2023-03-11T05:58:39;95385.34;;;3.18;62.47
79028;BME280;68427;48.476;19.102;2023-03-11T06:01:07;95396.53;;;3.12;62.78
79028;BME280;68427;48.476;19.102;2023-03-11T06:03:33;95402.88;;;3.10;62.41
79028;BME280;68427;48.476;19.102;2023-03-11T06:05:59;95389.56;;;3.06;64.42
79028;BME280;68427;48.476;19.102;2023-03-11T06:08:26;95396.50;;;3.06;63.76
79028;BME280;68427;48.476;19.102;2023-03-11T06:10:52;95402.91;;;2.96;64.90
79028;BME280;68427;48.476;19.102;2023-03-11T06:13:17;95398.09;;;2.93;65.67
79028;BME280;68427;48.476;19.102;2023-03-11T06:15:43;95398.53;;;2.84;64.61
79028;BME280;68427;48.476;19.102;2023-03-11T06:18:10;95402.09;;;2.83;65.39
79028;BME280;68427;48.476;19.102;2023-03-11T06:20:35;95407.25;;;2.83;65.24
79028;BME280;68427;48.476;19.102;2023-03-11T06:23:02;95403.69;;;2.77;65.69
79028;BME280;68427;48.476;19.102;2023-03-11T06:25:29;95403.69;;;2.84;66.73
79028;BME280;68427;48.476;19.102;2023-03-11T06:27:55;95408.63;;;2.72;67.14
79028;BME280;68427;48.476;19.102;2023-03-11T06:30:22;95413.19;;;2.63;65.75
79028;BME280;68427;48.476;19.102;2023-03-11T06:32:48;95416.75;;;2.55;67.60
79028;BME280;68427;48.476;19.102;2023-03-11T06:35:14;95393.91;;;2.59;67.06
79028;BME280;68427;48.476;19.102;2023-03-11T06:37:40;95406.63;;;2.60;67.46
79028;BME280;68427;48.476;19.102;2023-03-11T06:40:07;95396.06;;;2.55;67.48
79028;BME280;68427;48.476;19.102;2023-03-11T06:42:35;95412.78;;;2.53;68.99
79028;BME280;68427;48.476;19.102;2023-03-11T06:45:01;95398.88;;;2.54;68.63
79028;BME280;68427;48.476;19.102;2023-03-11T06:47:27;95396.06;;;2.42;70.02
79028;BME280;68427;48.476;19.102;2023-03-11T06:49:53;95405.94;;;2.25;70.90
79028;BME280;68427;48.476;19.102;2023-03-11T06:52:19;95414.88;;;2.23;70.99
79028;BME280;68427;48.476;19.102;2023-03-11T06:54:44;95406.91;;;2.17;71.50
79028;BME280;68427;48.476;19.102;2023-03-11T06:57:10;95421.84;;;2.22;72.34
79028;BME280;68427;48.476;19.102;2023-03-11T06:59:37;95418.50;;;2.28;74.11
79028;BME280;68427;48.476;19.102;2023-03-11T07:02:04;95418.75;;;2.53;70.86
79028;BME280;68427;48.476;19.102;2023-03-11T07:04:30;95438.28;;;2.76;70.96
79028;BME280;68427;48.476;19.102;2023-03-11T07:06:56;95445.25;;;3.02;69.36
79028;BME280;68427;48.476;19.102;2023-03-11T07:09:22;95453.22;;;3.34;67.02
79028;BME280;68427;48.476;19.102;2023-03-11T07:11:49;95471.53;;;3.39;66.13
79028;BME280;68427;48.476;19.102;2023-03-11T07:14:16;95462.97;;;3.25;65.29
79028;BME280;68427;48.476;19.102;2023-03-11T07:16:43;95481.88;;;3.59;65.37
79028;BME280;68427;48.476;19.102;2023-03-11T07:19:10;95476.66;;;3.65;65.49
79028;BME280;68427;48.476;19.102;2023-03-11T07:21:36;95486.59;;;3.88;63.79
79028;BME280;68427;48.476;19.102;2023-03-11T07:24:03;95489.97;;;4.02;64.57
79028;BME280;68427;48.476;19.102;2023-03-11T07:26:31;95487.00;;;3.92;64.76
79028;BME280;68427;48.476;19.102;2023-03-11T07:28:57;95496.19;;;3.55;64.54
79028;BME280;68427;48.476;19.102;2023-03-11T07:31:25;95490.44;;;3.59;64.33
79028;BME280;68427;48.476;19.102;2023-03-11T07:33:52;95494.00;;;3.45;63.21
79028;BME280;68427;48.476;19.102;2023-03-11T07:36:20;95504.56;;;3.43;63.83
79028;BME280;68427;48.476;19.102;2023-03-11T07:38:46;95508.53;;;3.53;62.33
79028;BME280;68427;48.476;19.102;2023-03-11T07:41:13;95500.91;;;3.98;63.24
79028;BME280;68427;48.476;19.102;2023-03-11T07:43:40;95508.25;;;4.66;60.91
79028;BME280;68427;48.476;19.102;2023-03-11T07:46:10;95502.69;;;5.82;57.88
79028;BME280;68427;48.476;19.102;2023-03-11T07:48:37;95507.09;;;6.07;56.57
79028;BME280;68427;48.476;19.102;2023-03-11T07:51:06;95504.50;;;6.74;54.21
79028;BME280;68427;48.476;19.102;2023-03-11T07:53:33;95506.56;;;7.68;51.62
79028;BME280;68427;48.476;19.102;2023-03-11T07:55:59;95510.94;;;8.38;49.50
79028;BME280;68427;48.476;19.102;2023-03-11T07:58:26;95502.41;;;8.95;46.36
79028;BME280;68427;48.476;19.102;2023-03-11T08:00:52;95501.47;;;9.63;45.54
79028;BME280;68427;48.476;19.102;2023-03-11T08:03:19;95502.44;;;10.30;42.20
79028;BME280;68427;48.476;19.102;2023-03-11T08:05:44;95507.22;;;9.82;44.08
79028;BME280;68427;48.476;19.102;2023-03-11T08:08:11;95514.47;;;8.84;45.52
79028;BME280;68427;48.476;19.102;2023-03-11T08:10:37;95519.81;;;7.78;48.98
79028;BME280;68427;48.476;19.102;2023-03-11T08:13:03;95517.03;;;6.65;51.18
79028;BME280;68427;48.476;19.102;2023-03-11T08:15:29;95514.88;;;6.07;52.69
79028;BME280;68427;48.476;19.102;2023-03-11T08:17:55;95529.66;;;6.06;54.51
79028;BME280;68427;48.476;19.102;2023-03-11T08:20:20;95534.34;;;5.98;54.08
79028;BME280;68427;48.476;19.102;2023-03-11T08:22:46;95539.94;;;6.20;55.67
79028;BME280;68427;48.476;19.102;2023-03-11T08:25:13;95529.00;;;6.85;54.45
79028;BME280;68427;48.476;19.102;2023-03-11T08:27:39;95546.00;;;6.99;54.62
79028;BME280;68427;48.476;19.102;2023-03-11T08:30:07;95542.03;;;6.48;54.08
79028;BME280;68427;48.476;19.102;2023-03-11T08:32:33;95552.38;;;7.33;53.19
79028;BME280;68427;48.476;19.102;2023-03-11T08:34:59;95548.66;;;7.11;52.86
79028;BME280;68427;48.476;19.102;2023-03-11T08:37:24;95539.44;;;7.27;51.74
79028;BME280;68427;48.476;19.102;2023-03-11T08:39:50;95547.38;;;7.32;53.00
79028;BME280;68427;48.476;19.102;2023-03-11T08:42:17;95543.31;;;7.06;53.76
79028;BME280;68427;48.476;19.102;2023-03-11T08:44:43;95539.34;;;7.03;52.14
79028;BME280;68427;48.476;19.102;2023-03-11T08:47:09;95546.53;;;7.20;52.44
79028;BME280;68427;48.476;19.102;2023-03-11T08:49:36;95555.56;;;7.05;53.16
79028;BME280;68427;48.476;19.102;2023-03-11T08:52:08;95555.94;;;6.72;55.90
79028;BME280;68427;48.476;19.102;2023-03-11T08:54:34;95559.94;;;6.38;55.29
79028;BME280;68427;48.476;19.102;2023-03-11T08:57:00;95563.44;;;6.06;56.82
79028;BME280;68427;48.476;19.102;2023-03-11T08:59:29;95569.88;;;5.47;59.92
79028;BME280;68427;48.476;19.102;2023-03-11T09:01:55;95560.56;;;5.39;60.11
79028;BME280;68427;48.476;19.102;2023-03-11T09:04:21;95565.97;;;5.31;62.24
79028;BME280;68427;48.476;19.102;2023-03-11T09:06:47;95574.19;;;5.28;62.58
79028;BME280;68427;48.476;19.102;2023-03-11T09:09:19;95576.06;;;5.14;62.43
79028;BME280;68427;48.476;19.102;2023-03-11T09:11:45;95574.69;;;5.12;62.68
79028;BME280;68427;48.476;19.102;2023-03-11T09:14:11;95583.72;;;4.96;62.89
79028;BME280;68427;48.476;19.102;2023-03-11T09:16:38;95586.31;;;4.96;63.32
79028;BME280;68427;48.476;19.102;2023-03-11T09:19:04;95588.47;;;5.12;62.65
79028;BME280;68427;48.476;19.102;2023-03-11T09:21:31;95594.59;;;5.25;62.33
79028;BME280;68427;48.476;19.102;2023-03-11T09:23:57;95596.00;;;5.20;62.75
79028;BME280;68427;48.476;19.102;2023-03-11T09:26:23;95601.88;;;5.41;61.71
79028;BME280;68427;48.476;19.102;2023-03-11T09:28:49;95600.75;;;5.62;60.67
79028;BME280;68427;48.476;19.102;2023-03-11T09:31:15;95591.78;;;5.83;60.36
79028;BME280;68427;48.476;19.102;2023-03-11T09:33:43;95595.63;;;5.80;60.87
79028;BME280;68427;48.476;19.102;2023-03-11T09:36:10;95590.72;;;5.97;59.46
79028;BME280;68427;48.476;19.102;2023-03-11T09:38:36;95578.66;;;6.46;58.19
79028;BME280;68427;48.476;19.102;2023-03-11T09:41:07;95594.34;;;6.40;56.45
79028;BME280;68427;48.476;19.102;2023-03-11T09:43:46;95588.75;;;6.36;57.26
79028;BME280;68427;48.476;19.102;2023-03-11T09:46:29;95583.50;;;6.61;55.55
79028;BME280;68427;48.476;19.102;2023-03-11T09:49:05;95591.38;;;6.73;57.55
79028;BME280;68427;48.476;19.102;2023-03-11T09:51:35;95599.38;;;6.53;55.95
79028;BME280;68427;48.476;19.102;2023-03-11T09:54:04;95598.75;;;6.14;57.67
79028;BME280;68427;48.476;19.102;2023-03-11T09:56:33;95600.63;;;6.07;57.61
79028;BME280;68427;48.476;19.102;2023-03-11T09:59:02;95599.81;;;6.06;58.98
79028;BME280;68427;48.476;19.102;2023-03-11T10:01:31;95599.06;;;5.74;58.83
79028;BME280;68427;48.476;19.102;2023-03-11T10:04:03;95610.38;;;5.55;60.34
79028;BME280;68427;48.476;19.102;2023-03-11T10:06:32;95606.63;;;5.12;59.91
79028;BME280;68427;48.476;19.102;2023-03-11T10:09:02;95602.41;;;5.18;60.51
79028;BME280;68427;48.476;19.102;2023-03-11T10:11:40;95609.25;;;4.99;61.41
79028;BME280;68427;48.476;19.102;2023-03-11T10:14:19;95609.91;;;4.94;61.78
79028;BME280;68427;48.476;19.102;2023-03-11T10:16:56;95603.50;;;4.97;63.90
79028;BME280;68427;48.476;19.102;2023-03-11T10:19:33;95604.66;;;5.08;61.64
79028;BME280;68427;48.476;19.102;2023-03-11T10:22:07;95613.56;;;5.18;61.83
79028;BME280;68427;48.476;19.102;2023-03-11T10:24:42;95612.19;;;5.16;61.50
79028;BME280;68427;48.476;19.102;2023-03-11T10:27:15;95610.53;;;5.28;62.59
79028;BME280;68427;48.476;19.102;2023-03-11T10:29:47;95619.94;;;5.23;60.65
79028;BME280;68427;48.476;19.102;2023-03-11T10:32:19;95616.56;;;5.22;61.27
79028;BME280;68427;48.476;19.102;2023-03-11T10:34:52;95629.97;;;5.12;61.17
79028;BME280;68427;48.476;19.102;2023-03-11T10:37:23;95634.41;;;5.05;61.52
79028;BME280;68427;48.476;19.102;2023-03-11T10:39:51;95636.19;;;5.05;60.64
79028;BME280;68427;48.476;19.102;2023-03-11T10:42:20;95637.44;;;4.89;61.40
79028;BME280;68427;48.476;19.102;2023-03-11T10:44:47;95633.19;;;5.01;62.28
79028;BME280;68427;48.476;19.102;2023-03-11T10:47:16;95647.06;;;4.82;61.68
79028;BME280;68427;48.476;19.102;2023-03-11T10:49:43;95647.50;;;4.65;61.23
79028;BME280;68427;48.476;19.102;2023-03-11T10:52:10;95647.72;;;4.57;61.72
79028;BME280;68427;48.476;19.102;2023-03-11T10:54:37;95650.31;;;4.50;63.08
79028;BME280;68427;48.476;19.102;2023-03-11T10:57:04;95654.66;;;4.63;63.43
79028;BME280;68427;48.476;19.102;2023-03-11T10:59:32;95670.41;;;4.82;64.13
79028;BME280;68427;48.476;19.102;2023-03-11T11:01:59;95665.59;;;4.85;63.97
79028;BME280;68427;48.476;19.102;2023-03-11T11:04:33;95673.97;;;4.81;65.90
79028;BME280;68427;48.476;19.102;2023-03-11T11:07:20;95673.78;;;4.75;63.30
79028;BME280;68427;48.476;19.102;2023-03-11T11:10:12;95673.41;;;4.72;63.56
79028;BME280;68427;48.476;19.102;2023-03-11T11:12:50;95682.41;;;4.69;64.96
79028;BME280;68427;48.476;19.102;2023-03-11T11:15:20;95679.84;;;4.49;64.94
79028;BME280;68427;48.476;19.102;2023-03-11T11:17:46;95683.03;;;4.25;65.41
79028;BME280;68427;48.476;19.102;2023-03-11T11:20:16;95680.44;;;4.11;64.46
79028;BME280;68427;48.476;19.102;2023-03-11T11:22:50;95679.84;;;4.16;65.02
79028;BME280;68427;48.476;19.102;2023-03-11T11:25:31;95677.84;;;4.11;65.10
79028;BME280;68427;48.476;19.102;2023-03-11T11:28:01;95690.41;;;4.28;66.09
79028;BME280;68427;48.476;19.102;2023-03-11T11:30:27;95689.59;;;4.41;64.50
79028;BME280;68427;48.476;19.102;2023-03-11T11:32:53;95693.16;;;4.46;63.57
79028;BME280;68427;48.476;19.102;2023-03-11T11:35:21;95680.03;;;4.41;62.68
79028;BME280;68427;48.476;19.102;2023-03-11T11:37:50;95690.81;;;4.25;63.08
79028;BME280;68427;48.476;19.102;2023-03-11T11:40:23;95675.84;;;4.33;64.30
79028;BME280;68427;48.476;19.102;2023-03-11T11:42:51;95674.84;;;4.35;62.29
79028;BME280;68427;48.476;19.102;2023-03-11T11:45:25;95664.28;;;4.43;62.76
79028;BME280;68427;48.476;19.102;2023-03-11T11:47:53;95682.44;;;4.29;60.18
79028;BME280;68427;48.476;19.102;2023-03-11T11:50:25;95700.38;;;4.38;60.47
79028;BME280;68427;48.476;19.102;2023-03-11T11:52:56;95687.81;;;4.28;61.21
79028;BME280;68427;48.476;19.102;2023-03-11T11:55:27;95690.00;;;4.24;60.60
79028;BME280;68427;48.476;19.102;2023-03-11T11:57:54;95705.53;;;4.31;62.24
79028;BME280;68427;48.476;19.102;2023-03-11T12:00:21;95696.78;;;4.45;63.17
79028;BME280;68427;48.476;19.102;2023-03-11T12:03:04;95713.13;;;4.26;60.80
79028;BME280;68427;48.476;19.102;2023-03-11T12:05:31;95709.53;;;4.27;59.49
79028;BME280;68427;48.476;19.102;2023-03-11T12:08:09;95714.31;;;4.30;59.85
79028;BME280;68427;48.476;19.102;2023-03-11T12:10:47;95718.91;;;4.28;60.38
79028;BME280;68427;48.476;19.102;2023-03-11T12:13:24;95725.88;;;4.27;59.76
79028;BME280;68427;48.476;19.102;2023-03-11T12:15:59;95727.09;;;4.31;59.30
79028;BME280;68427;48.476;19.102;2023-03-11T12:18:29;95727.88;;;4.39;60.36
79028;BME280;68427;48.476;19.102;2023-03-11T12:20:57;95726.47;;;4.56;60.18
79028;BME280;68427;48.476;19.102;2023-03-11T12:23:32;95734.19;;;5.09;57.91
79028;BME280;68427;48.476;19.102;2023-03-11T12:26:13;95738.38;;;5.10;58.80
79028;BME280;68427;48.476;19.102;2023-03-11T12:28:44;95747.22;;;5.48;57.15
79028;BME280;68427;48.476;19.102;2023-03-11T12:31:11;95738.94;;;5.71;57.14
79028;BME280;68427;48.476;19.102;2023-03-11T12:33:40;95734.59;;;6.03;57.32
79028;BME280;68427;48.476;19.102;2023-03-11T12:36:20;95753.66;;;6.47;55.58
79028;BME280;68427;48.476;19.102;2023-03-11T12:38:49;95749.66;;;6.51;55.22
79028;BME280;68427;48.476;19.102;2023-03-11T12:41:33;95749.66;;;6.51;57.27
79028;BME280;68427;48.476;19.102;2023-03-11T12:44:12;95757.22;;;5.96;55.06
79028;BME280;68427;48.476;19.102;2023-03-11T12:47:16;95771.88;;;5.77;57.24
79028;BME280;68427;48.476;19.102;2023-03-11T12:49:44;95770.41;;;5.49;57.23
79028;BME280;68427;48.476;19.102;2023-03-11T12:52:18;95768.84;;;5.35;57.15
79028;BME280;68427;48.476;19.102;2023-03-11T12:54:46;95774.47;;;5.25;57.70
79028;BME280;68427;48.476;19.102;2023-03-11T12:57:36;95770.72;;;4.88;57.34
79028;BME280;68427;48.476;19.102;2023-03-11T13:00:20;95786.88;;;5.03;58.44
79028;BME280;68427;48.476;19.102;2023-03-11T13:03:06;95782.28;;;5.12;59.33
79028;BME280;68427;48.476;19.102;2023-03-11T13:05:49;95783.44;;;5.23;58.08